sensor_id;sensor_type;location;lat;lon;timestamp;pressure;altitude;pressure_sealevel;temperature;humidity
9249;BME280;4660;41.768;26.198;2023-08-24T00:01:15;100786.63;;;25.06;100.00
9249;BME280;4660;41.768;26.198;2023-08-24T00:03:44;100785.69;;;25.12;100.00
9249;BME280;4660;41.768;26.198;2023-08-24T00:06:11;100783.94;;;24.87;100.00
9249;BME280;4660;41.768;26.198;2023-08-24T00:08:37;100786.63;;;25.06;100.00
9249;BME280;4660;41.768;26.198;2023-08-24T00:11:03;100782.00;;;25.18;100.00
9249;BME280;4660;41.768;26.198;2023-08-24T00:13:29;100775.59;;;24.94;100.00
9249;BME280;4660;41.768;26.198;2023-08-24T00:15:55;100774.63;;;25.00;100.00
9249;BME280;4660;41.768;26.198;2023-08-24T00:18:21;100738.69;;;24.83;100.00
9249;BME280;4660;41.768;26.198;2023-08-24T00:20:49;100772.19;;;24.92;100.00
9249;BME280;4660;41.768;26.198;2023-08-24T00:23:16;100765.25;;;24.89;100.00
9249;BME280;4660;41.768;26.198;2023-08-24T00:25:41;100776.72;;;25.05;100.00
9249;BME280;4660;41.768;26.198;2023-08-24T00:28:07;100782.97;;;24.63;100.00
9249;BME280;4660;41.768;26.198;2023-08-24T00:30:32;100778.88;;;24.17;100.00
9249;BME280;4660;41.768;26.198;2023-08-24T00:32:58;100777.06;;;24.11;100.00
9249;BME280;4660;41.768;26.198;2023-08-24T00:35:23;100761.84;;;23.72;100.00
9249;BME280;4660;41.768;26.198;2023-08-24T00:37:49;100771.47;;;24.00;100.00
9249;BME280;4660;41.768;26.198;2023-08-24T00:40:16;100764.13;;;24.49;100.00
9249;BME280;4660;41.768;26.198;2023-08-24T00:42:43;100772.88;;;24.46;100.00
9249;BME280;4660;41.768;26.198;2023-08-24T00:45:10;100782.31;;;24.31;100.00
9249;BME280;4660;41.768;26.198;2023-08-24T00:47:37;100770.25;;;24.32;100.00
9249;BME280;4660;41.768;26.198;2023-08-24T00:50:08;100768.53;;;24.38;100.00
9249;BME280;4660;41.768;26.198;2023-08-24T00:52:37;100762.00;;;24.32;100.00
9249;BME280;4660;41.768;26.198;2023-08-24T00:55:05;100758.66;;;24.12;100.00
9249;BME280;4660;41.768;26.198;2023-08-24T00:57:31;100753.00;;;24.25;100.00
9249;BME280;4660;41.768;26.198;2023-08-24T00:59:59;100749.63;;;24.23;100.00
9249;BME280;4660;41.768;26.198;2023-08-24T01:02:25;100745.97;;;24.29;100.00
9249;BME280;4660;41.768;26.198;2023-08-24T01:04:51;100743.44;;;24.46;100.00
9249;BME280;4660;41.768;26.198;2023-08-24T01:07:17;100751.75;;;24.58;100.00
9249;BME280;4660;41.768;26.198;2023-08-24T01:09:43;100750.53;;;24.54;100.00
9249;BME280;4660;41.768;26.198;2023-08-24T01:12:36;100751.84;;;24.51;100.00
9249;BME280;4660;41.768;26.198;2023-08-24T01:15:19;100751.59;;;24.53;100.00
9249;BME280;4660;41.768;26.198;2023-08-24T01:17:49;100741.88;;;24.50;100.00
9249;BME280;4660;41.768;26.198;2023-08-24T01:20:17;100734.69;;;24.37;100.00
9249;BME280;4660;41.768;26.198;2023-08-24T01:23:07;100733.16;;;24.23;100.00
9249;BME280;4660;41.768;26.198;2023-08-24T01:28:01;100719.41;;;24.05;100.00
9249;BME280;4660;41.768;26.198;2023-08-24T01:30:29;100725.41;;;24.13;100.00
9249;BME280;4660;41.768;26.198;2023-08-24T01:32:56;100734.59;;;24.07;100.00
9249;BME280;4660;41.768;26.198;2023-08-24T01:35:21;100729.09;;;24.07;100.00
9249;BME280;4660;41.768;26.198;2023-08-24T01:37:47;100737.63;;;23.99;100.00
9249;BME280;4660;41.768;26.198;2023-08-24T01:40:13;100737.13;;;24.09;100.00
9249;BME280;4660;41.768;26.198;2023-08-24T01:42:58;100745.81;;;24.24;100.00
9249;BME280;4660;41.768;26.198;2023-08-24T01:45:28;100744.06;;;24.30;100.00
9249;BME280;4660;41.768;26.198;2023-08-24T01:47:55;100734.44;;;24.21;100.00
9249;BME280;4660;41.768;26.198;2023-08-24T01:50:21;100730.31;;;24.11;100.00
9249;BME280;4660;41.768;26.198;2023-08-24T01:52:47;100731.31;;;23.80;100.00
9249;BME280;4660;41.768;26.198;2023-08-24T01:55:13;100740.25;;;23.76;100.00
9249;BME280;4660;41.768;26.198;2023-08-24T01:57:38;100732.41;;;23.79;100.00
9249;BME280;4660;41.768;26.198;2023-08-24T02:00:05;100734.91;;;23.81;100.00
9249;BME280;4660;41.768;26.198;2023-08-24T02:02:35;100732.84;;;23.76;100.00
9249;BME280;4660;41.768;26.198;2023-08-24T02:05:04;100733.00;;;23.81;100.00
9249;BME280;4660;41.768;26.198;2023-08-24T02:07:30;100732.75;;;23.40;100.00
9249;BME280;4660;41.768;26.198;2023-08-24T02:09:55;100737.34;;;23.46;100.00
9249;BME280;4660;41.768;26.198;2023-08-24T02:12:21;100733.19;;;23.61;100.00
9249;BME280;4660;41.768;26.198;2023-08-24T02:14:46;100732.16;;;23.56;100.00
9249;BME280;4660;41.768;26.198;2023-08-24T02:17:12;100736.03;;;23.48;100.00
9249;BME280;4660;41.768;26.198;2023-08-24T02:19:37;100728.50;;;23.44;100.00
9249;BME280;4660;41.768;26.198;2023-08-24T02:22:03;100741.94;;;23.52;100.00
9249;BME280;4660;41.768;26.198;2023-08-24T02:24:29;100718.72;;;23.48;100.00
9249;BME280;4660;41.768;26.198;2023-08-24T02:26:54;100726.97;;;23.48;100.00
9249;BME280;4660;41.768;26.198;2023-08-24T02:29:20;100728.50;;;23.44;100.00
9249;BME280;4660;41.768;26.198;2023-08-24T02:31:45;100721.09;;;23.44;100.00
9249;BME280;4660;41.768;26.198;2023-08-24T02:34:11;100730.16;;;23.70;100.00
9249;BME280;4660;41.768;26.198;2023-08-24T02:36:36;100726.63;;;23.63;100.00
9249;BME280;4660;41.768;26.198;2023-08-24T02:39:02;100736.34;;;23.83;100.00
9249;BME280;4660;41.768;26.198;2023-08-24T02:41:29;100732.66;;;23.71;100.00
9249;BME280;4660;41.768;26.198;2023-08-24T02:43:54;100741.47;;;23.80;100.00
9249;BME280;4660;41.768;26.198;2023-08-24T02:46:21;100723.09;;;23.80;100.00
9249;BME280;4660;41.768;26.198;2023-08-24T02:48:46;100730.25;;;23.81;100.00
9249;BME280;4660;41.768;26.198;2023-08-24T02:51:13;100726.56;;;23.69;100.00
9249;BME280;4660;41.768;26.198;2023-08-24T02:53:38;100726.56;;;23.69;100.00
9249;BME280;4660;41.768;26.198;2023-08-24T02:56:04;100722.00;;;23.81;100.00
9249;BME280;4660;41.768;26.198;2023-08-24T02:58:30;100735.13;;;23.98;100.00
9249;BME280;4660;41.768;26.198;2023-08-24T03:00:56;100722.69;;;23.95;100.00
9249;BME280;4660;41.768;26.198;2023-08-24T03:03:23;100716.94;;;23.78;100.00
9249;BME280;4660;41.768;26.198;2023-08-24T03:06:06;100723.38;;;23.72;100.00
9249;BME280;4660;41.768;26.198;2023-08-24T03:08:33;100720.16;;;23.75;100.00
9249;BME280;4660;41.768;26.198;2023-08-24T03:11:02;100717.81;;;23.54;100.00
9249;BME280;4660;41.768;26.198;2023-08-24T03:13:28;100715.81;;;23.68;100.00
9249;BME280;4660;41.768;26.198;2023-08-24T03:15:54;100720.84;;;23.71;100.00
9249;BME280;4660;41.768;26.198;2023-08-24T03:18:20;100722.16;;;23.86;100.00
9249;BME280;4660;41.768;26.198;2023-08-24T03:20:47;100725.88;;;23.92;100.00
9249;BME280;4660;41.768;26.198;2023-08-24T03:23:13;100735.59;;;23.95;100.00
9249;BME280;4660;41.768;26.198;2023-08-24T03:25:40;100727.19;;;23.89;100.00
9249;BME280;4660;41.768;26.198;2023-08-24T03:28:07;100728.03;;;23.90;100.00
9249;BME280;4660;41.768;26.198;2023-08-24T03:30:35;100721.53;;;23.84;100.00
9249;BME280;4660;41.768;26.198;2023-08-24T03:33:01;100712.50;;;23.59;100.00
9249;BME280;4660;41.768;26.198;2023-08-24T03:35:29;100723.31;;;23.54;100.00
9249;BME280;4660;41.768;26.198;2023-08-24T03:37:55;100739.00;;;23.47;100.00
9249;BME280;4660;41.768;26.198;2023-08-24T03:40:20;100738.19;;;23.21;100.00
9249;BME280;4660;41.768;26.198;2023-08-24T03:42:46;100726.88;;;23.11;100.00
9249;BME280;4660;41.768;26.198;2023-08-24T03:45:12;100744.69;;;23.27;100.00
9249;BME280;4660;41.768;26.198;2023-08-24T03:47:37;100738.88;;;23.17;100.00
9249;BME280;4660;41.768;26.198;2023-08-24T03:50:03;100737.63;;;23.13;100.00
9249;BME280;4660;41.768;26.198;2023-08-24T03:52:28;100746.19;;;22.98;100.00
9249;BME280;4660;41.768;26.198;2023-08-24T03:54:54;100746.88;;;22.93;100.00
9249;BME280;4660;41.768;26.198;2023-08-24T03:57:19;100754.44;;;22.91;100.00
9249;BME280;4660;41.768;26.198;2023-08-24T03:59:45;100752.59;;;22.78;100.00
9249;BME280;4660;41.768;26.198;2023-08-24T04:02:11;100741.69;;;22.72;100.00
9249;BME280;4660;41.768;26.198;2023-08-24T04:04:36;100751.97;;;22.76;100.00
9249;BME280;4660;41.768;26.198;2023-08-24T04:07:02;100743.25;;;22.93;100.00
9249;BME280;4660;41.768;26.198;2023-08-24T04:09:28;100738.56;;;23.00;100.00
9249;BME280;4660;41.768;26.198;2023-08-24T04:11:54;100742.72;;;23.09;100.00
9249;BME280;4660;41.768;26.198;2023-08-24T04:14:19;100742.28;;;23.12;100.00
9249;BME280;4660;41.768;26.198;2023-08-24T04:16:45;100742.03;;;22.89;100.00
9249;BME280;4660;41.768;26.198;2023-08-24T04:19:10;100739.16;;;22.70;100.00
9249;BME280;4660;41.768;26.198;2023-08-24T04:21:36;100739.28;;;22.82;100.00
9249;BME280;4660;41.768;26.198;2023-08-24T04:24:02;100729.75;;;22.60;100.00
9249;BME280;4660;41.768;26.198;2023-08-24T04:26:27;100746.72;;;22.75;100.00
9249;BME280;4660;41.768;26.198;2023-08-24T04:28:53;100737.56;;;22.49;100.00
9249;BME280;4660;41.768;26.198;2023-08-24T04:31:18;100750.56;;;22.67;100.00
9249;BME280;4660;41.768;26.198;2023-08-24T04:33:44;100747.63;;;22.62;100.00
9249;BME280;4660;41.768;26.198;2023-08-24T04:36:09;100751.88;;;22.65;100.00
9249;BME280;4660;41.768;26.198;2023-08-24T04:38:35;100753.53;;;22.66;100.00
9249;BME280;4660;41.768;26.198;2023-08-24T04:41:01;100744.34;;;22.47;100.00
9249;BME280;4660;41.768;26.198;2023-08-24T04:43:26;100744.72;;;22.57;100.00
9249;BME280;4660;41.768;26.198;2023-08-24T04:45:53;100749.34;;;22.57;100.00
9249;BME280;4660;41.768;26.198;2023-08-24T04:48:23;100750.50;;;22.36;100.00
9249;BME280;4660;41.768;26.198;2023-08-24T04:50:49;100750.97;;;22.33;100.00
9249;BME280;4660;41.768;26.198;2023-08-24T04:53:17;100739.63;;;22.22;100.00
9249;BME280;4660;41.768;26.198;2023-08-24T04:55:43;100734.69;;;22.44;100.00
9249;BME280;4660;41.768;26.198;2023-08-24T04:58:10;100752.47;;;22.67;100.00
9249;BME280;4660;41.768;26.198;2023-08-24T05:00:37;100761.19;;;22.95;100.00
9249;BME280;4660;41.768;26.198;2023-08-24T05:03:04;100765.47;;;23.16;100.00
9249;BME280;4660;41.768;26.198;2023-08-24T05:05:30;100749.25;;;22.76;100.00
9249;BME280;4660;41.768;26.198;2023-08-24T05:07:57;100765.28;;;22.86;100.00
9249;BME280;4660;41.768;26.198;2023-08-24T05:10:23;100767.53;;;22.96;100.00
9249;BME280;4660;41.768;26.198;2023-08-24T05:12:49;100763.44;;;23.05;100.00
9249;BME280;4660;41.768;26.198;2023-08-24T05:15:14;100768.72;;;23.31;100.00
9249;BME280;4660;41.768;26.198;2023-08-24T05:17:40;100775.44;;;23.35;100.00
9249;BME280;4660;41.768;26.198;2023-08-24T05:20:07;100778.97;;;23.43;100.00
9249;BME280;4660;41.768;26.198;2023-08-24T05:22:33;100778.22;;;23.60;100.00
9249;BME280;4660;41.768;26.198;2023-08-24T05:24:59;100780.34;;;24.02;100.00
9249;BME280;4660;41.768;26.198;2023-08-24T05:27:25;100778.13;;;24.10;100.00
9249;BME280;4660;41.768;26.198;2023-08-24T05:29:50;100780.63;;;24.12;100.00
9249;BME280;4660;41.768;26.198;2023-08-24T05:32:16;100783.78;;;24.34;100.00
9249;BME280;4660;41.768;26.198;2023-08-24T05:34:42;100793.19;;;24.45;100.00
9249;BME280;4660;41.768;26.198;2023-08-24T05:37:07;100786.31;;;24.35;100.00
9249;BME280;4660;41.768;26.198;2023-08-24T05:39:33;100777.97;;;24.24;100.00
9249;BME280;4660;41.768;26.198;2023-08-24T05:41:58;100797.16;;;24.49;100.00
9249;BME280;4660;41.768;26.198;2023-08-24T05:44:24;100795.78;;;24.58;100.00
9249;BME280;4660;41.768;26.198;2023-08-24T05:46:49;100793.72;;;24.83;100.00
9249;BME280;4660;41.768;26.198;2023-08-24T05:49:15;100793.88;;;25.00;100.00
9249;BME280;4660;41.768;26.198;2023-08-24T05:51:40;100804.84;;;25.07;100.00
9249;BME280;4660;41.768;26.198;2023-08-24T05:54:06;100788.72;;;24.92;100.00
9249;BME280;4660;41.768;26.198;2023-08-24T05:56:32;100807.66;;;25.00;100.00
9249;BME280;4660;41.768;26.198;2023-08-24T05:58:58;100804.84;;;25.07;100.00
9249;BME280;4660;41.768;26.198;2023-08-24T06:01:24;100789.41;;;25.06;100.00
9249;BME280;4660;41.768;26.198;2023-08-24T06:03:50;100791.63;;;25.39;100.00
9249;BME280;4660;41.768;26.198;2023-08-24T06:06:16;100804.72;;;25.67;100.00
9249;BME280;4660;41.768;26.198;2023-08-24T06:08:43;100791.69;;;25.74;100.00
9249;BME280;4660;41.768;26.198;2023-08-24T06:11:09;100797.78;;;25.76;100.00
9249;BME280;4660;41.768;26.198;2023-08-24T06:13:34;100785.81;;;25.82;100.00
9249;BME280;4660;41.768;26.198;2023-08-24T06:16:00;100780.66;;;25.97;100.00
9249;BME280;4660;41.768;26.198;2023-08-24T06:18:27;100779.19;;;26.18;100.00
9249;BME280;4660;41.768;26.198;2023-08-24T06:20:53;100783.53;;;26.54;99.53
9249;BME280;4660;41.768;26.198;2023-08-24T06:23:19;100781.28;;;26.80;96.96
9249;BME280;4660;41.768;26.198;2023-08-24T06:25:45;100793.19;;;27.26;96.19
9249;BME280;4660;41.768;26.198;2023-08-24T06:28:13;100796.22;;;27.41;94.66
9249;BME280;4660;41.768;26.198;2023-08-24T06:30:40;100792.44;;;27.47;92.09
9249;BME280;4660;41.768;26.198;2023-08-24T06:33:06;100785.41;;;27.23;92.89
9249;BME280;4660;41.768;26.198;2023-08-24T06:35:35;100775.94;;;27.19;93.92
9249;BME280;4660;41.768;26.198;2023-08-24T06:38:03;100769.84;;;27.33;93.18
9249;BME280;4660;41.768;26.198;2023-08-24T06:40:29;100779.22;;;27.83;91.41
9249;BME280;4660;41.768;26.198;2023-08-24T06:42:55;100766.72;;;27.63;89.39
9249;BME280;4660;41.768;26.198;2023-08-24T06:45:21;100772.00;;;27.82;88.94
9249;BME280;4660;41.768;26.198;2023-08-24T06:47:46;100763.69;;;28.20;85.47
9249;BME280;4660;41.768;26.198;2023-08-24T06:50:14;100785.78;;;28.59;81.87
9249;BME280;4660;41.768;26.198;2023-08-24T06:52:41;100773.34;;;28.62;83.38
9249;BME280;4660;41.768;26.198;2023-08-24T06:55:08;100783.25;;;28.79;84.35
9249;BME280;4660;41.768;26.198;2023-08-24T06:57:35;100772.94;;;28.75;82.92
9249;BME280;4660;41.768;26.198;2023-08-24T07:00:00;100765.56;;;28.86;83.07
9249;BME280;4660;41.768;26.198;2023-08-24T07:02:26;100775.50;;;28.82;83.85
9249;BME280;4660;41.768;26.198;2023-08-24T07:04:52;100789.38;;;28.82;83.08
9249;BME280;4660;41.768;26.198;2023-08-24T07:07:17;100783.03;;;29.08;81.33
9249;BME280;4660;41.768;26.198;2023-08-24T07:09:43;100772.81;;;29.14;80.02
9249;BME280;4660;41.768;26.198;2023-08-24T07:12:10;100783.38;;;29.17;80.72
9249;BME280;4660;41.768;26.198;2023-08-24T07:14:38;100784.81;;;29.24;80.25
9249;BME280;4660;41.768;26.198;2023-08-24T07:17:05;100780.19;;;29.35;80.72
9249;BME280;4660;41.768;26.198;2023-08-24T07:19:31;100785.38;;;29.53;79.10
9249;BME280;4660;41.768;26.198;2023-08-24T07:21:56;100788.16;;;29.96;78.57
9249;BME280;4660;41.768;26.198;2023-08-24T07:24:22;100782.72;;;30.11;77.74
9249;BME280;4660;41.768;26.198;2023-08-24T07:26:52;100793.88;;;30.21;75.87
9249;BME280;4660;41.768;26.198;2023-08-24T07:29:18;100786.72;;;30.30;73.20
9249;BME280;4660;41.768;26.198;2023-08-24T07:31:43;100775.59;;;30.30;71.21
9249;BME280;4660;41.768;26.198;2023-08-24T07:34:09;100772.34;;;30.44;68.37
9249;BME280;4660;41.768;26.198;2023-08-24T07:36:34;100781.38;;;30.91;67.29
9249;BME280;4660;41.768;26.198;2023-08-24T07:38:59;100776.63;;;30.92;66.64
9249;BME280;4660;41.768;26.198;2023-08-24T07:41:25;100764.03;;;30.64;66.60
9249;BME280;4660;41.768;26.198;2023-08-24T07:43:51;100765.53;;;30.82;63.81
9249;BME280;4660;41.768;26.198;2023-08-24T07:46:16;100779.16;;;31.14;64.83
9249;BME280;4660;41.768;26.198;2023-08-24T07:48:43;100780.06;;;31.25;60.96
9249;BME280;4660;41.768;26.198;2023-08-24T07:51:09;100773.66;;;31.29;58.96
9249;BME280;4660;41.768;26.198;2023-08-24T07:53:34;100754.19;;;31.39;60.33
9249;BME280;4660;41.768;26.198;2023-08-24T07:56:00;100775.88;;;31.47;59.98
9249;BME280;4660;41.768;26.198;2023-08-24T07:58:27;100757.81;;;31.45;60.90
9249;BME280;4660;41.768;26.198;2023-08-24T08:00:52;100765.81;;;31.72;59.28
9249;BME280;4660;41.768;26.198;2023-08-24T08:03:21;100768.59;;;31.92;55.08
9249;BME280;4660;41.768;26.198;2023-08-24T08:05:47;100767.72;;;32.07;53.58
9249;BME280;4660;41.768;26.198;2023-08-24T08:08:16;100766.56;;;32.13;57.18
9249;BME280;4660;41.768;26.198;2023-08-24T08:10:42;100774.03;;;32.28;54.92
9249;BME280;4660;41.768;26.198;2023-08-24T08:13:08;100765.44;;;32.24;51.92
9249;BME280;4660;41.768;26.198;2023-08-24T08:15:36;100778.28;;;32.80;50.06
9249;BME280;4660;41.768;26.198;2023-08-24T08:18:04;100765.66;;;33.32;48.09
9249;BME280;4660;41.768;26.198;2023-08-24T08:20:30;100759.47;;;33.35;48.08
9249;BME280;4660;41.768;26.198;2023-08-24T08:22:56;100763.78;;;33.22;49.73
9249;BME280;4660;41.768;26.198;2023-08-24T08:25:21;100768.50;;;33.22;48.25
9249;BME280;4660;41.768;26.198;2023-08-24T08:27:48;100753.63;;;33.02;50.71
9249;BME280;4660;41.768;26.198;2023-08-24T08:30:14;100760.78;;;33.13;49.48
9249;BME280;4660;41.768;26.198;2023-08-24T08:32:41;100751.44;;;33.28;47.33
9249;BME280;4660;41.768;26.198;2023-08-24T08:35:06;100749.22;;;33.30;46.57
9249;BME280;4660;41.768;26.198;2023-08-24T08:37:32;100752.28;;;33.29;44.76
9249;BME280;4660;41.768;26.198;2023-08-24T08:39:58;100739.13;;;33.34;44.38
9249;BME280;4660;41.768;26.198;2023-08-24T08:42:24;100752.38;;;33.82;43.98
9249;BME280;4660;41.768;26.198;2023-08-24T08:44:49;100746.81;;;34.06;42.49
9249;BME280;4660;41.768;26.198;2023-08-24T08:47:18;100744.38;;;33.99;41.39
9249;BME280;4660;41.768;26.198;2023-08-24T08:49:45;100743.78;;;34.02;42.18
9249;BME280;4660;41.768;26.198;2023-08-24T08:52:12;100749.50;;;34.35;43.40
9249;BME280;4660;41.768;26.198;2023-08-24T08:54:38;100742.03;;;34.30;43.45
9249;BME280;4660;41.768;26.198;2023-08-24T08:57:04;100738.22;;;34.02;42.93
9249;BME280;4660;41.768;26.198;2023-08-24T08:59:30;100740.81;;;33.64;43.80
9249;BME280;4660;41.768;26.198;2023-08-24T09:01:57;100747.72;;;33.43;44.32
9249;BME280;4660;41.768;26.198;2023-08-24T09:04:27;100739.94;;;33.35;44.13
9249;BME280;4660;41.768;26.198;2023-08-24T09:06:54;100744.59;;;33.50;44.73
9249;BME280;4660;41.768;26.198;2023-08-24T09:09:21;100741.91;;;33.34;44.98
9249;BME280;4660;41.768;26.198;2023-08-24T09:11:50;100733.25;;;33.41;44.66
9249;BME280;4660;41.768;26.198;2023-08-24T09:14:16;100739.47;;;33.28;45.51
9249;BME280;4660;41.768;26.198;2023-08-24T09:16:41;100740.47;;;33.42;44.64
9249;BME280;4660;41.768;26.198;2023-08-24T09:19:11;100733.03;;;33.61;43.53
9249;BME280;4660;41.768;26.198;2023-08-24T09:21:40;100738.63;;;33.61;42.79
9249;BME280;4660;41.768;26.198;2023-08-24T09:24:07;100727.41;;;33.37;42.38
9249;BME280;4660;41.768;26.198;2023-08-24T09:26:37;100705.16;;;33.27;43.05
9249;BME280;4660;41.768;26.198;2023-08-24T09:29:14;100731.03;;;33.67;43.07
9249;BME280;4660;41.768;26.198;2023-08-24T09:31:41;100730.50;;;33.89;42.75
9249;BME280;4660;41.768;26.198;2023-08-24T09:34:09;100725.09;;;33.74;43.02
9249;BME280;4660;41.768;26.198;2023-08-24T09:36:35;100718.88;;;34.06;41.96
9249;BME280;4660;41.768;26.198;2023-08-24T09:39:05;100715.16;;;34.15;42.01
9249;BME280;4660;41.768;26.198;2023-08-24T09:41:41;100723.59;;;34.29;41.46
9249;BME280;4660;41.768;26.198;2023-08-24T09:44:07;100719.34;;;34.37;40.77
9249;BME280;4660;41.768;26.198;2023-08-24T09:46:35;100700.78;;;34.46;41.74
9249;BME280;4660;41.768;26.198;2023-08-24T09:49:01;100707.41;;;34.50;40.19
9249;BME280;4660;41.768;26.198;2023-08-24T09:51:28;100708.03;;;34.47;40.92
9249;BME280;4660;41.768;26.198;2023-08-24T09:53:57;100700.97;;;34.31;41.11
9249;BME280;4660;41.768;26.198;2023-08-24T09:56:28;100695.25;;;34.41;40.50
9249;BME280;4660;41.768;26.198;2023-08-24T09:59:00;100701.91;;;34.45;40.68
9249;BME280;4660;41.768;26.198;2023-08-24T10:01:30;100686.19;;;34.30;40.38
9249;BME280;4660;41.768;26.198;2023-08-24T10:03:57;100683.84;;;34.37;42.29
9249;BME280;4660;41.768;26.198;2023-08-24T10:06:27;100685.31;;;34.72;40.07
9249;BME280;4660;41.768;26.198;2023-08-24T10:08:58;100685.03;;;35.07;39.36
9249;BME280;4660;41.768;26.198;2023-08-24T10:11:28;100680.25;;;35.40;37.90
9249;BME280;4660;41.768;26.198;2023-08-24T10:14:12;100664.25;;;35.59;38.37
9249;BME280;4660;41.768;26.198;2023-08-24T10:16:41;100675.31;;;35.50;37.62
9249;BME280;4660;41.768;26.198;2023-08-24T10:19:08;100654.38;;;35.75;37.59
9249;BME280;4660;41.768;26.198;2023-08-24T10:21:36;100661.13;;;35.88;37.42
9249;BME280;4660;41.768;26.198;2023-08-24T10:24:02;100657.81;;;35.72;36.96
9249;BME280;4660;41.768;26.198;2023-08-24T10:26:29;100657.78;;;35.86;35.55
9249;BME280;4660;41.768;26.198;2023-08-24T10:28:56;100656.78;;;36.09;34.52
9249;BME280;4660;41.768;26.198;2023-08-24T10:31:23;100645.75;;;36.13;34.80
9249;BME280;4660;41.768;26.198;2023-08-24T10:33:49;100643.88;;;36.22;35.10
9249;BME280;4660;41.768;26.198;2023-08-24T10:36:16;100648.34;;;36.23;33.67
9249;BME280;4660;41.768;26.198;2023-08-24T10:38:43;100625.00;;;36.14;33.74
9249;BME280;4660;41.768;26.198;2023-08-24T10:41:10;100637.25;;;36.77;33.12
9249;BME280;4660;41.768;26.198;2023-08-24T10:44:05;100628.41;;;37.06;32.26
9249;BME280;4660;41.768;26.198;2023-08-24T10:46:35;100627.34;;;36.93;32.35
9249;BME280;4660;41.768;26.198;2023-08-24T10:49:04;100618.13;;;37.24;31.90
9249;BME280;4660;41.768;26.198;2023-08-24T10:51:30;100613.91;;;37.43;31.08
9249;BME280;4660;41.768;26.198;2023-08-24T10:54:00;100604.31;;;37.36;31.71
9249;BME280;4660;41.768;26.198;2023-08-24T10:56:36;100603.81;;;37.03;32.34
9249;BME280;4660;41.768;26.198;2023-08-24T10:59:14;100608.44;;;37.07;32.12
9249;BME280;4660;41.768;26.198;2023-08-24T11:01:41;100604.22;;;37.18;32.59
9249;BME280;4660;41.768;26.198;2023-08-24T11:04:08;100586.38;;;37.45;32.06
9249;BME280;4660;41.768;26.198;2023-08-24T11:06:34;100598.47;;;37.63;31.92
9249;BME280;4660;41.768;26.198;2023-08-24T11:09:08;100593.88;;;37.67;31.26
9249;BME280;4660;41.768;26.198;2023-08-24T11:11:39;100593.53;;;37.29;30.99
9249;BME280;4660;41.768;26.198;2023-08-24T11:14:16;100581.13;;;37.61;31.07
9249;BME280;4660;41.768;26.198;2023-08-24T11:16:48;100581.88;;;37.84;30.75
9249;BME280;4660;41.768;26.198;2023-08-24T11:19:15;100583.03;;;37.92;30.17
9249;BME280;4660;41.768;26.198;2023-08-24T11:21:42;100579.25;;;38.14;29.80
9249;BME280;4660;41.768;26.198;2023-08-24T11:24:09;100574.31;;;38.28;29.44
9249;BME280;4660;41.768;26.198;2023-08-24T11:26:40;100557.16;;;38.30;29.88
9249;BME280;4660;41.768;26.198;2023-08-24T11:29:06;100557.97;;;38.39;29.15
9249;BME280;4660;41.768;26.198;2023-08-24T11:31:33;100566.88;;;38.41;28.70
9249;BME280;4660;41.768;26.198;2023-08-24T11:33:59;100566.50;;;38.08;29.11
9249;BME280;4660;41.768;26.198;2023-08-24T11:36:25;100544.19;;;37.85;29.67
9249;BME280;4660;41.768;26.198;2023-08-24T11:38:57;100549.06;;;37.54;29.86
9249;BME280;4660;41.768;26.198;2023-08-24T11:41:24;100548.13;;;37.67;29.91
9249;BME280;4660;41.768;26.198;2023-08-24T11:43:58;100534.44;;;37.83;30.06
9249;BME280;4660;41.768;26.198;2023-08-24T11:46:27;100514.84;;;37.43;29.94
9249;BME280;4660;41.768;26.198;2023-08-24T11:48:56;100519.44;;;37.30;29.98
9249;BME280;4660;41.768;26.198;2023-08-24T11:51:22;100529.09;;;37.55;30.15
9249;BME280;4660;41.768;26.198;2023-08-24T11:53:48;100522.97;;;37.44;30.60
9249;BME280;4660;41.768;26.198;2023-08-24T11:56:14;100516.53;;;37.53;30.49
9249;BME280;4660;41.768;26.198;2023-08-24T11:58:42;100517.03;;;37.55;29.96
9249;BME280;4660;41.768;26.198;2023-08-24T12:01:10;100489.78;;;37.46;30.41
9249;BME280;4660;41.768;26.198;2023-08-24T12:03:37;100513.59;;;37.66;29.52
9249;BME280;4660;41.768;26.198;2023-08-24T12:06:13;100504.56;;;37.95;29.44
9249;BME280;4660;41.768;26.198;2023-08-24T12:08:41;100501.75;;;38.30;30.27
9249;BME280;4660;41.768;26.198;2023-08-24T12:11:18;100506.19;;;38.14;28.97
9249;BME280;4660;41.768;26.198;2023-08-24T12:13:49;100506.69;;;37.81;29.34
9249;BME280;4660;41.768;26.198;2023-08-24T12:16:16;100499.16;;;37.42;29.75
9249;BME280;4660;41.768;26.198;2023-08-24T12:21:16;100473.75;;;36.99;30.62
9249;BME280;4660;41.768;26.198;2023-08-24T12:23:42;100466.53;;;37.06;30.49
9249;BME280;4660;41.768;26.198;2023-08-24T12:26:08;100477.06;;;37.49;30.71
9249;BME280;4660;41.768;26.198;2023-08-24T12:28:34;100467.47;;;37.50;30.62
9249;BME280;4660;41.768;26.198;2023-08-24T12:31:00;100458.56;;;37.39;30.30
9249;BME280;4660;41.768;26.198;2023-08-24T12:33:29;100446.50;;;37.39;29.63
9249;BME280;4660;41.768;26.198;2023-08-24T12:35:55;100461.28;;;37.22;30.23
9249;BME280;4660;41.768;26.198;2023-08-24T12:38:23;100450.50;;;37.07;30.81
9249;BME280;4660;41.768;26.198;2023-08-24T12:40:49;100463.81;;;37.32;31.22
9249;BME280;4660;41.768;26.198;2023-08-24T12:43:15;100452.06;;;37.30;31.46
9249;BME280;4660;41.768;26.198;2023-08-24T12:45:43;100450.31;;;37.52;30.49
9249;BME280;4660;41.768;26.198;2023-08-24T12:48:10;100466.22;;;37.82;30.23
9249;BME280;4660;41.768;26.198;2023-08-24T12:50:37;100447.19;;;38.14;29.78
9249;BME280;4660;41.768;26.198;2023-08-24T12:53:03;100435.09;;;38.22;28.41
9249;BME280;4660;41.768;26.198;2023-08-24T12:55:32;100426.69;;;38.31;28.64
9249;BME280;4660;41.768;26.198;2023-08-24T12:57:58;100428.09;;;38.54;28.46
9249;BME280;4660;41.768;26.198;2023-08-24T13:00:24;100429.63;;;38.43;28.00